Time;durP1;ratioP1;P1;durP2;ratioP2;P2;SDS_P1;SDS_P2;PMS_P1;PMS_P2;Temp;Humidity;BMP_temperature;BMP_pressure;BME280_temperature;BME280_humidity;BME280_pressure;Samples;Min_cycle;Max_cycle;Signal;HPM_P1;HPM_P2
2023/01/06 00:01:35;;;;;;;17.20;4.68;;;;;;;;;;6118305;23;20025;-61
2023/01/06 00:04:02;;;;;;;;;;;;;;;;;;6118912;23;20029;-55
2023/01/06 00:06:36;;;;;;;6.55;2.85;;;;;;;;;;6118468;23;19921;-60
2023/01/06 00:09:03;;;;;;;11.93;3.47;;;;;;;;;;6118202;23;20022;-61
2023/01/06 00:11:31;;;;;;;11.48;3.85;;;;;;;;;;6116858;23;20033;-60
2023/01/06 00:14:05;;;;;;;5.40;2.95;;;;;;;;;;6118248;23;20021;-60
2023/01/06 00:16:32;;;;;;;;;;;;;;;;;;6118689;23;20053;-60
2023/01/06 00:19:06;;;;;;;6.85;3.42;;;;;;;;;;6118211;23;19946;-61
2023/01/06 00:21:33;;;;;;;;;;;;;;;;;;6117834;23;20028;-60
2023/01/06 00:24:00;;;;;;;9.23;3.70;;;;;;;;;;6118756;23;19927;-76
2023/01/06 00:26:34;;;;;;;8.38;4.03;;;;;;;;;;6116961;23;20108;-75
2023/01/06 00:29:01;;;;;;;10.10;4.05;;;;;;;;;;6117053;23;20385;-77
2023/01/06 00:31:36;;;;;;;11.18;4.38;;;;;;;;;;6116860;23;20061;-76
2023/01/06 00:34:10;;;;;;;7.05;3.67;;;;;;;;;;6116069;23;20028;-76
2023/01/06 00:36:44;;;;;;;8.70;3.40;;;;;;;;;;6117909;23;20110;-76
2023/01/06 00:39:12;;;;;;;10.02;3.95;;;;;;;;;;6118953;23;20108;-60
2023/01/06 00:44:33;;;;;;;10.68;4.70;;;;;;;;;;6117383;23;20286;-49
2023/01/06 00:47:00;;;;;;;8.40;4.10;;;;;;;;;;6116852;23;20401;-53
2023/01/06 00:49:34;;;;;;;5.55;3.08;;;;;;;;;;6118370;23;20130;-51
2023/01/06 00:52:01;;;;;;;11.00;3.65;;;;;;;;;;6117140;23;20478;-55
2023/01/06 00:54:28;;;;;;;12.63;4.00;;;;;;;;;;6117810;23;20045;-50
2023/01/06 00:57:02;;;;;;;9.25;4.15;;;;;;;;;;6116394;23;20057;-51
2023/01/06 00:59:29;;;;;;;10.90;3.17;;;;;;;;;;6116404;23;20037;-62
2023/01/06 01:02:03;;;;;;;7.03;2.88;;;;;;;;;;6116201;23;20531;-60
2023/01/06 01:04:30;;;;;;;;;;;;;;;;;;6117898;23;20022;-61
2023/01/06 01:06:57;;;;;;;4.85;3.17;;;;;;;;;;6116073;23;20009;-61
2023/01/06 01:09:31;;;;;;;8.32;3.67;;;;;;;;;;6117412;23;20113;-60
2023/01/06 01:12:14;;;;;;;11.35;4.18;;;;;;;;;;6117291;23;20030;-58
2023/01/06 01:14:49;;;;;;;3.47;2.25;;;;;;;;;;6117365;23;20396;-60
2023/01/06 01:17:18;;;;;;;7.95;3.72;;;;;;;;;;6117435;23;20061;-62
2023/01/06 01:19:54;;;;;;;15.13;4.93;;;;;;;;;;6117550;23;20030;-61
2023/01/06 01:22:22;;;;;;;6.68;3.03;;;;;;;;;;6117740;23;20029;-62
2023/01/06 01:24:56;;;;;;;14.40;3.55;;;;;;;;;;6116169;23;20519;-62
2023/01/06 01:27:23;;;;;;;;;;;;;;;;;;6118215;23;20056;-63
2023/01/06 01:29:50;;;;;;;9.10;3.85;;;;;;;;;;6117674;23;20007;-62
2023/01/06 01:32:24;;;;;;;8.27;3.33;;;;;;;;;;6116640;23;20097;-62
2023/01/06 01:34:57;;;;;;;8.38;3.60;;;;;;;;;;6115552;23;20060;-62
2023/01/06 01:37:32;;;;;;;17.63;3.60;;;;;;;;;;6118834;23;20025;-65
2023/01/06 01:39:59;;;;;;;5.88;3.17;;;;;;;;;;6117236;23;20108;-54
2023/01/06 01:42:26;;;;;;;8.43;3.47;;;;;;;;;;6116283;23;20037;-55
2023/01/06 01:45:01;;;;;;;4.95;2.72;;;;;;;;;;6117787;23;20022;-55
2023/01/06 01:47:32;;;;;;;7.57;3.38;;;;;;;;;;6116232;23;20363;-53
2023/01/06 01:50:15;;;;;;;4.43;2.65;;;;;;;;;;6118030;23;20026;-51
2023/01/06 01:52:43;;;;;;;9.07;3.92;;;;;;;;;;6118476;23;20018;-56
2023/01/06 01:55:17;;;;;;;5.35;2.63;;;;;;;;;;6116331;23;20036;-61
2023/01/06 01:57:47;;;;;;;10.68;3.03;;;;;;;;;;6117123;23;20061;-51
2023/01/06 02:00:15;;;;;;;7.50;3.35;;;;;;;;;;6117202;23;20032;-65
2023/01/06 02:02:49;;;;;;;8.50;3.42;;;;;;;;;;6114960;23;20357;-65
2023/01/06 02:05:16;;;;;;;;;;;;;;;;;;6116879;23;20345;-65
2023/01/06 02:07:50;;;;;;;8.48;2.08;;;;;;;;;;6119413;23;19927;-65
2023/01/06 02:10:19;;;;;;;6.50;3.60;;;;;;;;;;6118511;23;20065;-65
2023/01/06 02:13:00;;;;;;;9.18;3.00;;;;;;;;;;6119337;23;20033;-65
2023/01/06 02:15:31;;;;;;;12.02;3.88;;;;;;;;;;6118489;23;20065;-74
2023/01/06 02:18:18;;;;;;;7.93;4.00;;;;;;;;;;6118358;23;20026;-52
2023/01/06 02:20:51;;;;;;;12.00;3.58;;;;;;;;;;6118972;23;20025;-56
2023/01/06 02:23:44;;;;;;;10.52;4.28;;;;;;;;;;6118077;23;20105;-52
2023/01/06 02:26:24;;;;;;;8.68;4.20;;;;;;;;;;6118551;23;20113;-51
2023/01/06 02:29:03;;;;;;;6.60;3.70;;;;;;;;;;6119682;23;20026;-57
2023/01/06 02:31:46;;;;;;;9.20;3.80;;;;;;;;;;6117812;23;20136;-58
2023/01/06 02:34:32;;;;;;;10.18;4.25;;;;;;;;;;6116487;23;20030;-74
2023/01/06 02:37:29;;;;;;;7.70;3.80;;;;;;;;;;6119200;23;20105;-65
2023/01/06 02:40:11;;;;;;;8.90;3.55;;;;;;;;;;6119235;23;20028;-65
2023/01/06 02:42:44;;;;;;;;;;;;;;;;;;6119828;23;20414;-66
2023/01/06 02:45:30;;;;;;;12.40;3.53;;;;;;;;;;6119003;23;19921;-65
2023/01/06 02:48:12;;;;;;;9.05;3.85;;;;;;;;;;6117755;23;20030;-65
2023/01/06 02:50:42;;;;;;;10.57;3.40;;;;;;;;;;6119254;23;20022;-66
2023/01/06 02:53:15;;;;;;;9.63;2.97;;;;;;;;;;6118709;23;20505;-56
2023/01/06 02:55:44;;;;;;;7.28;3.22;;;;;;;;;;6119369;23;20026;-61
2023/01/06 02:58:33;;;;;;;5.75;2.70;;;;;;;;;;6118506;23;20030;-58
2023/01/06 03:01:04;;;;;;;9.60;3.45;;;;;;;;;;6118443;23;20359;-58
2023/01/06 03:03:40;;;;;;;7.07;3.53;;;;;;;;;;6118373;23;20456;-62
2023/01/06 03:06:10;;;;;;;4.53;3.13;;;;;;;;;;6118997;23;20467;-60
2023/01/06 03:08:45;;;;;;;8.25;3.20;;;;;;;;;;6116627;23;20109;-61
2023/01/06 03:11:13;;;;;;;9.85;3.53;;;;;;;;;;6119412;23;20048;-54
2023/01/06 03:13:40;;;;;;;8.18;3.58;;;;;;;;;;6118009;23;20064;-63
2023/01/06 03:16:14;;;;;;;6.53;2.38;;;;;;;;;;6117147;23;20068;-61
2023/01/06 03:18:42;;;;;;;7.35;3.50;;;;;;;;;;6119547;23;20542;-61
2023/01/06 03:21:18;;;;;;;9.48;3.83;;;;;;;;;;6118760;23;20141;-59
2023/01/06 03:23:45;;;;;;;9.30;3.20;;;;;;;;;;6117136;23;20024;-61
2023/01/06 03:26:19;;;;;;;8.35;3.67;;;;;;;;;;6117925;23;20133;-61
2023/01/06 03:28:46;;;;;;;6.43;3.22;;;;;;;;;;6118293;23;20025;-61
2023/01/06 03:31:15;;;;;;;3.25;2.15;;;;;;;;;;6117081;23;20061;-73
2023/01/06 03:33:55;;;;;;;7.82;3.05;;;;;;;;;;6116917;23;20054;-59
2023/01/06 03:36:49;;;;;;;8.50;3.40;;;;;;;;;;6118710;23;20028;-61
2023/01/06 03:39:23;;;;;;;8.65;3.05;;;;;;;;;;6117185;23;20024;-61
2023/01/06 03:45:23;;;;;;;5.50;2.60;;;;;;;;;;6118387;23;20026;-61
2023/01/06 03:48:06;;;;;;;6.75;3.15;;;;;;;;;;6118602;23;20049;-60
2023/01/06 03:50:42;;;;;;;11.07;3.03;;;;;;;;;;6118553;23;20096;-63
2023/01/06 03:53:17;;;;;;;8.70;2.63;;;;;;;;;;6117714;23;20327;-65
2023/01/06 03:55:54;;;;;;;7.20;3.22;;;;;;;;;;6118916;23;20765;-65
2023/01/06 03:58:21;;;;;;;7.72;2.92;;;;;;;;;;6117865;23;20131;-65
2023/01/06 04:00:56;;;;;;;8.15;3.15;;;;;;;;;;6116945;23;20022;-65
2023/01/06 04:03:25;;;;;;;7.00;3.00;;;;;;;;;;6117682;23;20427;-65
2023/01/06 04:05:59;;;;;;;6.63;2.97;;;;;;;;;;6117574;23;20029;-65
2023/01/06 04:08:26;;;;;;;5.20;2.95;;;;;;;;;;6117715;23;20033;-63
2023/01/06 04:10:53;;;;;;;9.55;3.10;;;;;;;;;;6118233;23;20424;-56
2023/01/06 04:13:27;;;;;;;5.53;2.83;;;;;;;;;;6117070;23;20899;-63
2023/01/06 04:15:54;;;;;;;11.30;3.17;;;;;;;;;;6117973;23;20411;-63
2023/01/06 04:18:21;;;;;;;6.22;2.80;;;;;;;;;;6117534;23;20045;-63
2023/01/06 04:20:55;;;;;;;7.60;3.40;;;;;;;;;;6117128;23;20049;-63
2023/01/06 04:23:31;;;;;;;6.22;2.20;;;;;;;;;;6116599;23;20498;-63
2023/01/06 04:25:59;;;;;;;11.75;3.40;;;;;;;;;;6119943;23;20025;-62
2023/01/06 04:28:26;;;;;;;7.53;2.92;;;;;;;;;;6117307;23;20017;-64
2023/01/06 04:31:00;;;;;;;2.90;2.22;;;;;;;;;;6117794;23;20420;-73
2023/01/06 04:33:28;;;;;;;9.80;4.20;;;;;;;;;;6117341;23;20033;-73
2023/01/06 04:36:08;;;;;;;5.65;2.70;;;;;;;;;;6116685;23;20104;-73
2023/01/06 04:38:36;;;;;;;6.70;2.40;;;;;;;;;;6116721;23;20028;-73
2023/01/06 04:41:10;;;;;;;4.40;2.65;;;;;;;;;;6118954;23;20399;-73
2023/01/06 04:43:37;;;;;;;6.97;2.75;;;;;;;;;;6117962;23;20050;-72
2023/01/06 04:46:12;;;;;;;11.18;2.97;;;;;;;;;;6115546;23;20030;-54
2023/01/06 04:48:39;;;;;;;10.77;3.92;;;;;;;;;;6118345;23;20101;-49
2023/01/06 04:51:07;;;;;;;10.63;2.53;;;;;;;;;;6116696;23;20113;-59
2023/01/06 04:53:41;;;;;;;4.38;2.78;;;;;;;;;;6116186;23;20096;-59
2023/01/06 04:56:09;;;;;;;3.47;2.42;;;;;;;;;;6119072;23;20108;-60
2023/01/06 04:58:43;;;;;;;12.40;2.83;;;;;;;;;;6117330;23;20026;-60
2023/01/06 05:01:11;;;;;;;5.30;2.58;;;;;;;;;;6116589;23;20412;-61
2023/01/06 05:03:38;;;;;;;9.55;3.40;;;;;;;;;;6117373;23;20045;-58
2023/01/06 05:06:12;;;;;;;6.00;2.50;;;;;;;;;;6117423;23;20026;-62
2023/01/06 05:08:46;;;;;;;4.15;2.40;;;;;;;;;;6116570;23;20108;-58
2023/01/06 05:11:14;;;;;;;12.82;4.22;;;;;;;;;;6119338;23;20101;-62
2023/01/06 05:13:41;;;;;;;8.07;3.35;;;;;;;;;;6117262;23;20044;-63
2023/01/06 05:16:17;;;;;;;12.05;3.78;;;;;;;;;;6117484;23;20097;-63
2023/01/06 05:18:44;;;;;;;10.43;3.78;;;;;;;;;;6116639;23;20026;-63
2023/01/06 05:21:18;;;;;;;5.65;2.65;;;;;;;;;;6117404;23;20432;-63
2023/01/06 05:23:45;;;;;;;17.88;2.92;;;;;;;;;;6115738;23;20025;-63
2023/01/06 05:26:15;;;;;;;5.43;2.03;;;;;;;;;;6117316;23;20460;-63
2023/01/06 05:28:49;;;;;;;4.07;2.63;;;;;;;;;;6118197;23;20053;-74
2023/01/06 05:31:16;;;;;;;7.63;3.17;;;;;;;;;;6117489;23;20022;-73
2023/01/06 05:34:04;;;;;;;4.90;2.60;;;;;;;;;;6114527;23;20018;-73
2023/01/06 05:36:38;;;;;;;4.43;2.57;;;;;;;;;;6117454;23;20325;-73
2023/01/06 05:39:13;;;;;;;7.18;2.47;;;;;;;;;;6115006;23;20427;-73
2023/01/06 05:41:40;;;;;;;5.72;2.20;;;;;;;;;;6119697;23;20092;-74
2023/01/06 05:44:07;;;;;;;7.25;2.83;;;;;;;;;;6119163;23;20540;-64
2023/01/06 05:46:41;;;;;;;6.35;2.53;;;;;;;;;;6119162;23;20523;-62
2023/01/06 05:49:08;;;;;;;4.50;2.92;;;;;;;;;;6120087;23;20060;-62
2023/01/06 05:51:35;;;;;;;6.28;2.10;;;;;;;;;;6119815;23;20128;-62
2023/01/06 05:54:10;;;;;;;6.80;2.47;;;;;;;;;;6117723;23;20029;-62
2023/01/06 05:56:37;;;;;;;10.85;2.78;;;;;;;;;;6120145;23;20234;-64
2023/01/06 05:59:11;;;;;;;4.93;2.17;;;;;;;;;;6119024;23;20022;-62
2023/01/06 06:01:38;;;;;;;5.85;2.63;;;;;;;;;;6119166;23;20101;-61
2023/01/06 06:04:05;;;;;;;3.22;2.20;;;;;;;;;;6117208;23;20030;-60
2023/01/06 06:06:39;;;;;;;3.70;2.45;;;;;;;;;;6117216;23;20525;-53
2023/01/06 06:09:06;;;;;;;4.80;2.00;;;;;;;;;;6118880;23;20021;-55
2023/01/06 06:11:40;;;;;;;4.82;2.67;;;;;;;;;;6119390;23;20028;-56
2023/01/06 06:14:09;;;;;;;6.30;1.95;;;;;;;;;;6119325;23;20057;-56
2023/01/06 06:16:36;;;;;;;4.90;1.88;;;;;;;;;;6119808;23;20086;-55
2023/01/06 06:19:11;;;;;;;4.22;1.90;;;;;;;;;;6117726;23;20069;-54
2023/01/06 06:21:38;;;;;;;5.55;2.78;;;;;;;;;;6117552;23;20026;-60
2023/01/06 06:24:12;;;;;;;10.80;1.98;;;;;;;;;;6117352;23;20030;-53
2023/01/06 06:26:39;;;;;;;7.28;3.00;;;;;;;;;;6119381;23;20065;-65
2023/01/06 06:29:07;;;;;;;4.47;2.08;;;;;;;;;;6119034;23;20100;-64
2023/01/06 06:31:41;;;;;;;1.88;1.40;;;;;;;;;;6118877;23;20072;-64
2023/01/06 06:34:20;;;;;;;6.25;1.92;;;;;;;;;;6116884;23;20030;-64
2023/01/06 06:36:55;;;;;;;3.55;2.10;;;;;;;;;;6119022;23;20030;-64
2023/01/06 06:39:22;;;;;;;7.65;2.65;;;;;;;;;;6118812;23;20049;-64
2023/01/06 06:41:49;;;;;;;5.40;3.22;;;;;;;;;;6118107;23;20092;-58
2023/01/06 06:44:23;;;;;;;12.02;2.45;;;;;;;;;;6120173;23;20093;-63
2023/01/06 06:46:50;;;;;;;5.63;2.70;;;;;;;;;;6118728;23;20026;-63
2023/01/06 06:49:24;;;;;;;3.83;1.80;;;;;;;;;;6119024;23;20144;-63
2023/01/06 06:51:51;;;;;;;4.70;1.95;;;;;;;;;;6117699;23;20182;-63
2023/01/06 06:54:21;;;;;;;3.83;2.13;;;;;;;;;;6117684;23;20084;-63
2023/01/06 06:56:55;;;;;;;2.35;1.73;;;;;;;;;;6119594;23;20022;-63
2023/01/06 06:59:22;;;;;;;4.43;2.30;;;;;;;;;;6118798;23;20091;-63
2023/01/06 07:01:50;;;;;;;8.00;3.35;;;;;;;;;;6118790;23;20243;-62
2023/01/06 07:04:24;;;;;;;5.65;2.72;;;;;;;;;;6117143;23;20041;-58
2023/01/06 07:06:51;;;;;;;3.97;1.63;;;;;;;;;;6118159;23;20050;-55
2023/01/06 07:09:25;;;;;;;4.90;2.47;;;;;;;;;;6115597;23;20072;-58
2023/01/06 07:11:52;;;;;;;5.95;2.15;;;;;;;;;;6114706;23;20028;-59
2023/01/06 07:14:26;;;;;;;5.55;2.30;;;;;;;;;;6118059;23;20535;-55
2023/01/06 07:16:53;;;;;;;;;;;;;;;;;;6118562;23;20416;-58
2023/01/06 07:19:20;;;;;;;6.47;2.70;;;;;;;;;;6115614;23;19962;-63
2023/01/06 07:21:54;;;;;;;6.38;2.22;;;;;;;;;;6115655;23;20109;-71
2023/01/06 07:24:21;;;;;;;5.30;2.15;;;;;;;;;;6117884;23;20116;-58
2023/01/06 07:26:55;;;;;;;2.97;1.58;;;;;;;;;;6091729;23;20444;-59
2023/01/06 07:29:22;;;;;;;8.02;3.45;;;;;;;;;;6117758;23;20527;-56
2023/01/06 07:31:49;;;;;;;5.03;2.22;;;;;;;;;;6118281;23;20046;-59
2023/01/06 07:34:35;;;;;;;7.60;2.97;;;;;;;;;;6115802;23;20359;-59
2023/01/06 07:37:10;;;;;;;8.85;2.90;;;;;;;;;;6117408;23;20022;-57
2023/01/06 07:39:44;;;;;;;4.57;2.30;;;;;;;;;;6117948;23;20108;-62
2023/01/06 07:42:12;;;;;;;4.93;2.00;;;;;;;;;;6118750;23;20025;-53
2023/01/06 07:44:39;;;;;;;5.10;2.80;;;;;;;;;;6118791;23;20419;-50
2023/01/06 07:47:13;;;;;;;6.25;2.85;;;;;;;;;;6118024;23;20032;-52
2023/01/06 07:49:40;;;;;;;7.60;2.88;;;;;;;;;;6117673;23;20018;-48
2023/01/06 07:52:14;;;;;;;15.38;3.10;;;;;;;;;;6117749;23;20025;-50
2023/01/06 07:54:41;;;;;;;6.53;2.90;;;;;;;;;;6118182;23;20046;-54
2023/01/06 07:57:08;;;;;;;3.28;1.95;;;;;;;;;;6117543;23;20053;-65
2023/01/06 07:59:44;;;;;;;8.02;2.75;;;;;;;;;;6119618;23;20026;-57
2023/01/06 08:02:11;;;;;;;7.70;2.65;;;;;;;;;;6115633;23;20643;-52
2023/01/06 08:04:45;;;;;;;6.78;3.10;;;;;;;;;;6116447;23;20026;-52
2023/01/06 08:07:12;;;;;;;3.28;2.15;;;;;;;;;;6118231;23;20392;-51
2023/01/06 08:09:39;;;;;;;;;;;;;;;;;;6118919;23;20098;-50
2023/01/06 08:12:13;;;;;;;8.48;3.45;;;;;;;;;;6117291;23;19940;-49
2023/01/06 08:14:40;;;;;;;5.82;2.70;;;;;;;;;;6119113;23;20022;-50
2023/01/06 08:17:14;;;;;;;7.65;2.30;;;;;;;;;;6118143;23;20036;-59
2023/01/06 08:19:41;;;;;;;;;;;;;;;;;;6117393;23;20042;-52
2023/01/06 08:22:08;;;;;;;5.55;2.88;;;;;;;;;;6115601;23;19923;-51
2023/01/06 08:24:42;;;;;;;6.15;1.88;;;;;;;;;;6115377;23;20024;-55
2023/01/06 08:27:09;;;;;;;2.47;1.80;;;;;;;;;;6116990;23;20072;-57
2023/01/06 08:29:43;;;;;;;3.83;2.00;;;;;;;;;;6117878;23;20025;-54
2023/01/06 08:32:10;;;;;;;;;;;;;;;;;;6118820;23;20053;-51
2023/01/06 08:34:37;;;;;;;8.27;2.58;;;;;;;;;;6115952;23;19917;-70
2023/01/06 08:37:17;;;;;;;5.35;2.80;;;;;;;;;;6118574;23;20026;-54
2023/01/06 08:39:45;;;;;;;4.88;2.55;;;;;;;;;;6118354;23;20096;-63
2023/01/06 08:42:19;;;;;;;4.45;2.25;;;;;;;;;;6118222;23;20051;-63
2023/01/06 08:44:46;;;;;;;8.52;3.22;;;;;;;;;;6119044;23;20022;-64
2023/01/06 08:47:20;;;;;;;3.60;2.47;;;;;;;;;;6117870;23;20061;-63
2023/01/06 08:49:55;;;;;;;11.43;3.20;;;;;;;;;;6115364;23;20109;-65
2023/01/06 08:52:22;;;;;;;7.55;2.30;;;;;;;;;;6115598;23;20018;-63
2023/01/06 08:54:49;;;;;;;4.95;1.92;;;;;;;;;;6115904;23;20033;-71
2023/01/06 08:57:23;;;;;;;5.32;2.13;;;;;;;;;;6116600;23;20021;-58
2023/01/06 08:59:50;;;;;;;4.35;2.25;;;;;;;;;;6115704;23;20097;-71
2023/01/06 09:02:17;;;;;;;5.28;2.40;;;;;;;;;;6116039;23;20056;-71
2023/01/06 09:04:51;;;;;;;6.65;3.28;;;;;;;;;;6116862;23;20483;-72
2023/01/06 09:07:18;;;;;;;3.17;2.05;;;;;;;;;;6115734;23;20392;-72
2023/01/06 09:09:45;;;;;;;6.78;2.83;;;;;;;;;;6116645;23;20022;-71
2023/01/06 09:12:19;;;;;;;5.20;2.38;;;;;;;;;;6115326;23;20065;-71
2023/01/06 09:14:46;;;;;;;6.65;2.83;;;;;;;;;;6117330;23;20097;-72
2023/01/06 09:17:13;;;;;;;2.60;1.60;;;;;;;;;;6129942;23;20111;-47
2023/01/06 09:19:47;;;;;;;5.22;2.63;;;;;;;;;;6132112;23;20025;-45
2023/01/06 09:22:14;;;;;;;3.10;1.92;;;;;;;;;;6143430;23;20035;-48
2023/01/06 09:24:48;;;;;;;4.40;2.45;;;;;;;;;;6147385;23;20104;-45
2023/01/06 09:27:15;;;;;;;2.03;1.52;;;;;;;;;;6146311;23;20108;-47
2023/01/06 09:29:42;;;;;;;4.03;2.30;;;;;;;;;;6147671;23;20407;-45
2023/01/06 09:32:16;;;;;;;1.95;1.40;;;;;;;;;;6147062;23;20028;-59
2023/01/06 09:34:43;;;;;;;5.05;2.30;;;;;;;;;;6146813;23;20021;-69
2023/01/06 09:37:10;;;;;;;5.10;2.10;;;;;;;;;;6143177;23;20131;-69
2023/01/06 09:39:44;;;;;;;4.65;2.35;;;;;;;;;;6145385;23;20034;-68
2023/01/06 09:42:24;;;;;;;3.08;2.05;;;;;;;;;;6147745;23;20045;-68
2023/01/06 09:45:00;;;;;;;4.22;2.75;;;;;;;;;;6145040;23;20029;-68
2023/01/06 09:47:32;;;;;;;2.67;1.90;;;;;;;;;;6147361;23;20053;-68
2023/01/06 09:50:14;;;;;;;7.43;2.53;;;;;;;;;;6146061;23;20022;-68
2023/01/06 09:52:48;;;;;;;2.00;1.63;;;;;;;;;;6147117;23;20022;-47
2023/01/06 09:55:25;;;;;;;4.63;2.55;;;;;;;;;;6147995;23;20128;-48
2023/01/06 09:58:02;;;;;;;5.45;2.33;;;;;;;;;;6147225;23;20466;-48
2023/01/06 10:00:43;;;;;;;7.07;2.55;;;;;;;;;;6147330;23;20057;-51
2023/01/06 10:03:18;;;;;;;3.08;2.20;;;;;;;;;;6146268;23;20106;-51
2023/01/06 10:05:52;;;;;;;3.50;2.03;;;;;;;;;;6144757;23;20104;-48
2023/01/06 10:08:32;;;;;;;5.47;2.20;;;;;;;;;;6147654;23;20022;-49
2023/01/06 10:11:22;;;;;;;3.03;2.05;;;;;;;;;;6145136;23;20128;-69
2023/01/06 10:14:10;;;;;;;6.32;2.80;;;;;;;;;;6139843;23;20540;-68
2023/01/06 10:16:49;;;;;;;3.53;2.05;;;;;;;;;;6111601;23;20488;-68
2023/01/06 10:19:43;;;;;;;7.45;2.97;;;;;;;;;;6086781;23;20101;-69
2023/01/06 10:22:14;;;;;;;5.23;1.87;;;;;;;;;;6089194;23;20068;-69
2023/01/06 10:25:12;;;;;;;5.10;2.80;;;;;;;;;;6087540;23;20030;-69
2023/01/06 10:27:40;;;;;;;5.43;2.85;;;;;;;;;;6089277;23;20618;-68
2023/01/06 10:30:25;;;;;;;5.20;3.22;;;;;;;;;;6090641;23;20510;-68
2023/01/06 10:32:57;;;;;;;4.78;2.40;;;;;;;;;;6088979;23;20037;-68
2023/01/06 10:35:32;;;;;;;3.55;1.95;;;;;;;;;;6090104;23;20424;-69
2023/01/06 10:38:03;;;;;;;4.65;2.08;;;;;;;;;;6088811;23;20034;-68
2023/01/06 10:40:31;;;;;;;2.70;1.83;;;;;;;;;;6088823;23;20125;-68
2023/01/06 10:43:10;;;;;;;8.35;2.85;;;;;;;;;;6087576;23;20097;-71
2023/01/06 10:45:37;;;;;;;2.78;1.88;;;;;;;;;;6089645;23;20097;-65
2023/01/06 10:48:24;;;;;;;5.65;2.13;;;;;;;;;;6090403;23;20102;-50
2023/01/06 10:50:51;;;;;;;6.43;3.20;;;;;;;;;;6088950;23;20101;-50
2023/01/06 10:53:25;;;;;;;4.00;2.33;;;;;;;;;;6088583;23;20117;-50
2023/01/06 10:55:56;;;;;;;3.55;2.20;;;;;;;;;;6088797;23;20416;-48
2023/01/06 10:58:27;;;;;;;4.53;2.83;;;;;;;;;;6086100;23;20441;-50
2023/01/06 11:01:10;;;;;;;3.83;2.00;;;;;;;;;;6087065;23;20101;-50
2023/01/06 11:03:41;;;;;;;7.25;2.13;;;;;;;;;;6090240;23;20313;-69
2023/01/06 11:06:27;;;;;;;7.20;3.67;;;;;;;;;;6089147;23;20594;-70
2023/01/06 11:08:55;;;;;;;3.22;2.00;;;;;;;;;;6090606;23;20026;-69
2023/01/06 11:11:29;;;;;;;5.20;2.45;;;;;;;;;;6088222;23;20566;-70
2023/01/06 11:13:58;;;;;;;5.65;3.35;;;;;;;;;;6112985;23;20099;-69
2023/01/06 11:16:39;;;;;;;9.02;3.03;;;;;;;;;;6095937;23;20097;-69
2023/01/06 11:19:22;;;;;;;7.22;3.70;;;;;;;;;;6115605;23;20036;-68
2023/01/06 11:21:56;;;;;;;5.68;2.67;;;;;;;;;;6117205;23;20347;-55
2023/01/06 11:24:24;;;;;;;3.65;2.45;;;;;;;;;;6117438;23;20029;-52
2023/01/06 11:27:13;;;;;;;2.72;2.40;;;;;;;;;;6118664;23;20022;-48
2023/01/06 11:29:40;;;;;;;8.15;2.80;;;;;;;;;;6117126;23;20077;-53
2023/01/06 11:32:17;;;;;;;5.32;2.83;;;;;;;;;;6118390;23;20030;-49
2023/01/06 11:34:53;;;;;;;8.27;3.42;;;;;;;;;;6117286;23;20522;-49
2023/01/06 11:37:29;;;;;;;7.13;3.08;;;;;;;;;;6118037;23;20057;-50
2023/01/06 11:39:56;;;;;;;11.45;3.75;;;;;;;;;;6116943;23;20057;-59
2023/01/06 11:42:38;;;;;;;6.85;2.20;;;;;;;;;;6117032;23;20423;-59
2023/01/06 11:45:30;;;;;;;5.32;3.03;;;;;;;;;;6118541;23;20105;-60
2023/01/06 11:48:07;;;;;;;5.93;3.28;;;;;;;;;;6117372;23;20057;-59
2023/01/06 11:50:34;;;;;;;4.13;2.58;;;;;;;;;;6118107;23;20109;-59
2023/01/06 11:53:03;;;;;;;5.95;3.38;;;;;;;;;;6117797;23;20064;-59
2023/01/06 11:55:38;;;;;;;6.35;3.17;;;;;;;;;;6116176;23;20040;-60
2023/01/06 11:58:11;;;;;;;7.80;4.30;;;;;;;;;;6116930;23;20424;-68
2023/01/06 12:00:47;;;;;;;6.43;3.60;;;;;;;;;;6118814;23;20034;-60
2023/01/06 12:03:19;;;;;;;4.95;3.38;;;;;;;;;;6116944;23;20095;-60
2023/01/06 12:06:06;;;;;;;7.03;2.80;;;;;;;;;;6118041;23;20352;-59
2023/01/06 12:08:40;;;;;;;3.55;2.35;;;;;;;;;;6115337;23;20439;-59
2023/01/06 12:11:20;;;;;;;2.15;1.77;;;;;;;;;;6117427;23;20229;-60
2023/01/06 12:13:47;;;;;;;7.70;3.83;;;;;;;;;;6119419;23;20097;-59
2023/01/06 12:16:58;;;;;;;2.83;1.88;;;;;;;;;;6115976;23;20022;-52
2023/01/06 12:19:38;;;;;;;5.47;2.28;;;;;;;;;;6114916;23;20590;-52
2023/01/06 12:22:19;;;;;;;6.55;3.53;;;;;;;;;;6117323;23;20101;-53
2023/01/06 12:24:55;;;;;;;4.60;2.35;;;;;;;;;;6117168;23;20068;-51
2023/01/06 12:27:48;;;;;;;10.13;3.38;;;;;;;;;;6119576;23;20619;-51
2023/01/06 12:30:33;;;;;;;5.78;3.88;;;;;;;;;;6117940;23;20033;-50
2023/01/06 12:33:17;;;;;;;6.30;3.13;;;;;;;;;;6116730;23;20029;-52
2023/01/06 12:35:47;;;;;;;6.00;3.50;;;;;;;;;;6118154;23;20534;-48
2023/01/06 12:38:38;;;;;;;8.98;5.18;;;;;;;;;;6116979;23;20101;-59
2023/01/06 12:41:16;;;;;;;5.53;3.53;;;;;;;;;;6112501;23;20050;-59
2023/01/06 12:43:48;;;;;;;8.57;5.18;;;;;;;;;;6118203;23;20075;-59
2023/01/06 12:46:28;;;;;;;5.97;2.33;;;;;;;;;;6116226;23;20522;-59
2023/01/06 12:49:02;;;;;;;6.00;3.17;;;;;;;;;;6115902;23;20018;-59
2023/01/06 12:51:41;;;;;;;6.50;3.63;;;;;;;;;;6118622;23;20022;-59
2023/01/06 12:54:18;;;;;;;5.38;3.30;;;;;;;;;;6115055;23;20021;-69
2023/01/06 12:57:11;;;;;;;6.28;3.35;;;;;;;;;;6115846;23;20100;-67
2023/01/06 12:59:57;;;;;;;2.30;1.90;;;;;;;;;;6113717;23;20128;-67
2023/01/06 13:02:44;;;;;;;6.28;3.47;;;;;;;;;;6113792;23;20025;-68
2023/01/06 13:05:27;;;;;;;9.23;5.20;;;;;;;;;;6114004;23;20041;-67
2023/01/06 13:08:17;;;;;;;7.63;3.53;;;;;;;;;;6115349;23;20097;-67
2023/01/06 13:10:46;;;;;;;5.30;3.85;;;;;;;;;;6114622;23;20545;-67
2023/01/06 13:13:20;;;;;;;4.13;3.10;;;;;;;;;;6113370;23;20109;-68
2023/01/06 13:15:47;;;;;;;5.82;3.15;;;;;;;;;;6114801;23;20597;-65
2023/01/06 13:18:30;;;;;;;8.68;4.03;;;;;;;;;;6107607;23;20334;-64
2023/01/06 13:21:07;;;;;;;11.82;4.75;;;;;;;;;;6086100;23;20057;-65
2023/01/06 13:23:50;;;;;;;9.70;4.53;;;;;;;;;;6089547;23;20044;-65
2023/01/06 13:26:24;;;;;;;6.72;3.92;;;;;;;;;;6089268;23;20102;-65
2023/01/06 13:29:10;;;;;;;6.72;3.92;;;;;;;;;;6088240;23;20341;-65
2023/01/06 13:31:44;;;;;;;4.70;2.63;;;;;;;;;;6087516;23;20064;-59
2023/01/06 13:34:40;;;;;;;6.30;3.85;;;;;;;;;;6087589;23;20196;-68
2023/01/06 13:37:21;;;;;;;8.15;3.70;;;;;;;;;;6087921;23;20567;-68
2023/01/06 13:39:59;;;;;;;4.93;2.50;;;;;;;;;;6085608;23;20480;-67
2023/01/06 13:42:37;;;;;;;9.10;6.03;;;;;;;;;;6088976;23;20027;-66
2023/01/06 13:45:07;;;;;;;4.68;2.90;;;;;;;;;;6088939;23;20121;-67
2023/01/06 13:47:49;;;;;;;5.72;3.22;;;;;;;;;;6087144;23;20458;-67
2023/01/06 13:50:18;;;;;;;7.68;3.60;;;;;;;;;;6087156;23;20057;-45
2023/01/06 13:52:53;;;;;;;4.50;2.92;;;;;;;;;;6088640;23;20029;-59
2023/01/06 13:55:37;;;;;;;5.00;3.00;;;;;;;;;;6087725;23;20446;-56
2023/01/06 13:58:24;;;;;;;4.80;2.95;;;;;;;;;;6088765;23;20054;-57
2023/01/06 14:01:05;;;;;;;6.32;4.20;;;;;;;;;;6087590;23;20030;-58
2023/01/06 14:03:40;;;;;;;4.78;3.13;;;;;;;;;;6089885;23;20023;-56
2023/01/06 14:06:16;;;;;;;6.07;3.30;;;;;;;;;;6088033;23;20534;-59
2023/01/06 14:08:59;;;;;;;7.18;3.40;;;;;;;;;;6090371;23;20081;-64
2023/01/06 14:11:31;;;;;;;4.75;3.00;;;;;;;;;;6090676;23;20058;-68
2023/01/06 14:14:06;;;;;;;5.10;3.25;;;;;;;;;;6089416;23;20675;-68
2023/01/06 14:16:54;;;;;;;6.30;3.20;;;;;;;;;;6092407;23;20105;-66
2023/01/06 14:19:36;;;;;;;28.10;14.45;;;;;;;;;;6119389;23;20108;-68
2023/01/06 14:22:17;;;;;;;10.85;5.20;;;;;;;;;;6118424;23;20518;-67
2023/01/06 14:24:52;;;;;;;7.57;5.40;;;;;;;;;;6119710;23;20100;-50
2023/01/06 14:27:38;;;;;;;4.72;2.50;;;;;;;;;;6118812;23;20056;-64
2023/01/06 14:30:25;;;;;;;4.18;3.03;;;;;;;;;;6118051;23;20033;-59
2023/01/06 14:32:52;;;;;;;8.48;3.85;;;;;;;;;;6114068;23;20025;-60
2023/01/06 14:35:31;;;;;;;3.25;2.40;;;;;;;;;;6116533;23;20030;-54
2023/01/06 14:38:02;;;;;;;4.55;2.75;;;;;;;;;;6118391;23;20464;-59
2023/01/06 14:40:38;;;;;;;6.35;3.42;;;;;;;;;;6118207;23;20026;-58
2023/01/06 14:43:41;;;;;;;4.10;2.87;;;;;;;;;;6117670;23;20017;-69
2023/01/06 14:46:16;;;;;;;4.20;2.92;;;;;;;;;;6114590;23;20049;-51
2023/01/06 14:48:57;;;;;;;5.15;3.22;;;;;;;;;;6116108;23;20827;-51
2023/01/06 14:51:24;;;;;;;4.30;3.00;;;;;;;;;;6110475;23;20032;-51
2023/01/06 14:53:59;;;;;;;6.85;3.42;;;;;;;;;;6116005;23;20537;-54
2023/01/06 14:56:28;;;;;;;14.55;9.27;;;;;;;;;;6114469;23;20349;-52
2023/01/06 14:59:09;;;;;;;5.50;3.63;;;;;;;;;;6115642;23;20018;-54
2023/01/06 15:01:37;;;;;;;5.05;3.00;;;;;;;;;;6113434;23;20030;-60
2023/01/06 15:04:22;;;;;;;5.40;3.53;;;;;;;;;;6115447;23;20026;-60
2023/01/06 15:06:57;;;;;;;4.93;2.65;;;;;;;;;;6114806;23;20513;-69
2023/01/06 15:09:31;;;;;;;2.97;2.10;;;;;;;;;;6115466;23;20097;-68
2023/01/06 15:11:58;;;;;;;;;;;;;;;;;;6116330;23;20029;-68
2023/01/06 15:14:33;;;;;;;4.35;2.92;;;;;;;;;;6090893;23;20030;-69
2023/01/06 15:17:08;;;;;;;5.35;2.75;;;;;;;;;;6112647;23;20028;-68
2023/01/06 15:19:43;;;;;;;6.85;3.75;;;;;;;;;;6114368;23;20072;-69
2023/01/06 15:22:12;;;;;;;5.03;3.08;;;;;;;;;;6114926;23;20105;-60
2023/01/06 15:24:42;;;;;;;5.47;4.05;;;;;;;;;;6117705;23;20057;-69
2023/01/06 15:27:17;;;;;;;3.00;2.58;;;;;;;;;;6114457;23;20493;-69
2023/01/06 15:29:51;;;;;;;4.28;2.85;;;;;;;;;;6110889;23;20026;-71
2023/01/06 15:32:27;;;;;;;4.32;2.78;;;;;;;;;;6113152;23;20042;-68